sensor_id;sensor_type;location;lat;lon;timestamp;pressure;altitude;pressure_sealevel;temperature;humidity
11395;BME280;5753;54.402;10.220;2024-03-23T00:52:18;100845.34;;;5.21;92.46
11395;BME280;5753;54.402;10.220;2024-03-23T00:54:46;100838.59;;;5.16;92.24
11395;BME280;5753;54.402;10.220;2024-03-23T00:57:13;100838.59;;;5.17;92.62
11395;BME280;5753;54.402;10.220;2024-03-23T00:59:41;100831.69;;;5.19;92.29
11395;BME280;5753;54.402;10.220;2024-03-23T01:02:07;100829.19;;;5.18;92.36
11395;BME280;5753;54.402;10.220;2024-03-23T01:04:34;100828.28;;;5.19;91.51
11395;BME280;5753;54.402;10.220;2024-03-23T01:07:02;100814.69;;;5.17;91.52
11395;BME280;5753;54.402;10.220;2024-03-23T01:09:29;100807.91;;;5.14;91.35
11395;BME280;5753;54.402;10.220;2024-03-23T01:11:56;100810.38;;;5.19;91.36
11395;BME280;5753;54.402;10.220;2024-03-23T01:14:24;100795.06;;;5.17;91.74
11395;BME280;5753;54.402;10.220;2024-03-23T01:16:52;100800.09;;;5.22;91.64
11395;BME280;5753;54.402;10.220;2024-03-23T01:19:19;100791.59;;;5.20;91.46
11395;BME280;5753;54.402;10.220;2024-03-23T01:21:45;100795.16;;;5.13;91.27
11395;BME280;5753;54.402;10.220;2024-03-23T01:24:13;100795.97;;;5.15;91.81
11395;BME280;5753;54.402;10.220;2024-03-23T01:26:40;100791.66;;;5.17;91.55
11395;BME280;5753;54.402;10.220;2024-03-23T01:29:08;100789.97;;;5.16;91.56
11395;BME280;5753;54.402;10.220;2024-03-23T01:31:35;100784.84;;;5.17;91.55
11395;BME280;5753;54.402;10.220;2024-03-23T01:34:04;100779.66;;;5.20;91.19
11395;BME280;5753;54.402;10.220;2024-03-23T01:36:33;100780.63;;;5.13;91.29
11395;BME280;5753;54.402;10.220;2024-03-23T01:39:01;100781.53;;;5.11;91.27
11395;BME280;5753;54.402;10.220;2024-03-23T01:41:27;100774.69;;;5.13;91.49
11395;BME280;5753;54.402;10.220;2024-03-23T01:43:56;100774.72;;;5.10;91.79
11395;BME280;5753;54.402;10.220;2024-03-23T01:46:25;100762.88;;;5.06;91.69
11395;BME280;5753;54.402;10.220;2024-03-23T01:48:53;100765.50;;;5.01;91.53
11395;BME280;5753;54.402;10.220;2024-03-23T01:51:21;100774.03;;;5.02;91.65
11395;BME280;5753;54.402;10.220;2024-03-23T01:53:48;100766.38;;;5.00;92.22
11395;BME280;5753;54.402;10.220;2024-03-23T01:56:15;100767.41;;;4.92;91.90
11395;BME280;5753;54.402;10.220;2024-03-23T01:58:43;100752.94;;;4.89;92.09
11395;BME280;5753;54.402;10.220;2024-03-23T02:01:11;100765.00;;;4.84;92.55
11395;BME280;5753;54.402;10.220;2024-03-23T02:03:37;100768.50;;;4.78;92.49
11395;BME280;5753;54.402;10.220;2024-03-23T02:06:04;100761.78;;;4.73;92.74
11395;BME280;5753;54.402;10.220;2024-03-23T02:08:33;100748.94;;;4.74;92.95
11395;BME280;5753;54.402;10.220;2024-03-23T02:11:02;100758.38;;;4.71;92.91
11395;BME280;5753;54.402;10.220;2024-03-23T02:13:31;100761.03;;;4.65;92.84
11395;BME280;5753;54.402;10.220;2024-03-23T02:15:59;100755.13;;;4.63;93.51
11395;BME280;5753;54.402;10.220;2024-03-23T02:18:25;100755.91;;;4.66;93.52
11395;BME280;5753;54.402;10.220;2024-03-23T02:20:52;100744.13;;;4.59;93.21
11395;BME280;5753;54.402;10.220;2024-03-23T02:23:19;100734.69;;;4.61;93.46
11395;BME280;5753;54.402;10.220;2024-03-23T02:25:47;100727.06;;;4.60;93.75
11395;BME280;5753;54.402;10.220;2024-03-23T02:28:14;100718.56;;;4.59;93.49
11395;BME280;5753;54.402;10.220;2024-03-23T02:30:41;100726.31;;;4.55;94.08
11395;BME280;5753;54.402;10.220;2024-03-23T02:33:08;100719.44;;;4.55;93.55
11395;BME280;5753;54.402;10.220;2024-03-23T02:35:34;100723.69;;;4.58;93.88
11395;BME280;5753;54.402;10.220;2024-03-23T02:38:02;100719.50;;;4.54;94.11
11395;BME280;5753;54.402;10.220;2024-03-23T02:40:29;100717.03;;;4.48;94.42
11395;BME280;5753;54.402;10.220;2024-03-23T02:42:57;100709.38;;;4.46;94.63
11395;BME280;5753;54.402;10.220;2024-03-23T02:45:24;100701.72;;;4.46;94.22
11395;BME280;5753;54.402;10.220;2024-03-23T02:47:52;100702.47;;;4.51;94.89
11395;BME280;5753;54.402;10.220;2024-03-23T02:50:23;100705.03;;;4.53;94.61
11395;BME280;5753;54.402;10.220;2024-03-23T02:52:50;100701.63;;;4.51;94.50
11395;BME280;5753;54.402;10.220;2024-03-23T02:55:19;100696.50;;;4.52;94.38
11395;BME280;5753;54.402;10.220;2024-03-23T02:57:47;100707.44;;;4.60;94.08
11395;BME280;5753;54.402;10.220;2024-03-23T03:00:15;100694.72;;;4.57;94.03
11395;BME280;5753;54.402;10.220;2024-03-23T03:02:45;100689.69;;;4.51;94.70
11395;BME280;5753;54.402;10.220;2024-03-23T03:05:11;100688.91;;;4.48;94.90
11395;BME280;5753;54.402;10.220;2024-03-23T03:07:41;100686.34;;;4.49;94.46
11395;BME280;5753;54.402;10.220;2024-03-23T03:10:09;100688.06;;;4.47;94.82
11395;BME280;5753;54.402;10.220;2024-03-23T03:12:40;100675.28;;;4.49;95.00
11395;BME280;5753;54.402;10.220;2024-03-23T03:15:07;100671.09;;;4.45;94.58
11395;BME280;5753;54.402;10.220;2024-03-23T03:17:37;100672.63;;;4.53;94.88
11395;BME280;5753;54.402;10.220;2024-03-23T03:20:06;100671.00;;;4.49;94.81
11395;BME280;5753;54.402;10.220;2024-03-23T03:22:33;100668.53;;;4.45;94.81
11395;BME280;5753;54.402;10.220;2024-03-23T03:25:01;100664.28;;;4.44;95.14
11395;BME280;5753;54.402;10.220;2024-03-23T03:27:31;100662.53;;;4.46;95.13
11395;BME280;5753;54.402;10.220;2024-03-23T03:29:59;100658.25;;;4.46;95.46
11395;BME280;5753;54.402;10.220;2024-03-23T03:32:30;100655.69;;;4.48;95.11
11395;BME280;5753;54.402;10.220;2024-03-23T03:34:56;100649.97;;;4.35;95.28
11395;BME280;5753;54.402;10.220;2024-03-23T03:37:22;100650.88;;;4.31;95.56
11395;BME280;5753;54.402;10.220;2024-03-23T03:39:49;100647.41;;;4.35;95.63
11395;BME280;5753;54.402;10.220;2024-03-23T03:42:16;100650.06;;;4.30;95.65
11395;BME280;5753;54.402;10.220;2024-03-23T03:44:44;100645.69;;;4.35;96.14
11395;BME280;5753;54.402;10.220;2024-03-23T03:47:11;100643.16;;;4.34;95.56
11395;BME280;5753;54.402;10.220;2024-03-23T03:49:39;100634.81;;;4.24;96.11
11395;BME280;5753;54.402;10.220;2024-03-23T03:52:06;100628.94;;;4.21;95.88
11395;BME280;5753;54.402;10.220;2024-03-23T03:54:33;100637.56;;;4.12;96.19
11395;BME280;5753;54.402;10.220;2024-03-23T03:57:03;100628.94;;;4.21;96.58
11395;BME280;5753;54.402;10.220;2024-03-23T03:59:30;100623.75;;;4.24;96.56
11395;BME280;5753;54.402;10.220;2024-03-23T04:01:56;100634.13;;;4.16;96.18
11395;BME280;5753;54.402;10.220;2024-03-23T04:04:22;100628.09;;;4.20;96.30
11395;BME280;5753;54.402;10.220;2024-03-23T04:06:49;100622.97;;;4.19;96.54
11395;BME280;5753;54.402;10.220;2024-03-23T04:09:18;100614.56;;;4.12;96.85
11395;BME280;5753;54.402;10.220;2024-03-23T04:11:44;100615.38;;;4.16;96.91
11395;BME280;5753;54.402;10.220;2024-03-23T04:14:12;100617.97;;;4.13;96.44
11395;BME280;5753;54.402;10.220;2024-03-23T04:16:41;100611.25;;;4.07;96.43
11395;BME280;5753;54.402;10.220;2024-03-23T04:19:11;100611.16;;;4.13;96.93
11395;BME280;5753;54.402;10.220;2024-03-23T04:21:43;100605.31;;;4.07;96.93
11395;BME280;5753;54.402;10.220;2024-03-23T04:24:10;100597.88;;;3.93;96.72
11395;BME280;5753;54.402;10.220;2024-03-23T04:26:43;100603.13;;;3.87;97.11
11395;BME280;5753;54.402;10.220;2024-03-23T04:29:10;100603.16;;;3.84;96.92
11395;BME280;5753;54.402;10.220;2024-03-23T04:31:38;100601.38;;;3.89;96.86
11395;BME280;5753;54.402;10.220;2024-03-23T04:34:06;100607.25;;;3.92;97.10
11395;BME280;5753;54.402;10.220;2024-03-23T04:36:32;100603.81;;;3.95;97.07
11395;BME280;5753;54.402;10.220;2024-03-23T04:39:00;100601.38;;;3.87;97.47
11395;BME280;5753;54.402;10.220;2024-03-23T04:41:29;100594.69;;;3.82;97.30
11395;BME280;5753;54.402;10.220;2024-03-23T04:43:56;100592.91;;;3.85;97.73
11395;BME280;5753;54.402;10.220;2024-03-23T04:46:23;100594.66;;;3.83;97.61
11395;BME280;5753;54.402;10.220;2024-03-23T04:48:51;100581.09;;;3.80;98.02
11395;BME280;5753;54.402;10.220;2024-03-23T04:51:23;100578.53;;;3.80;97.77
11395;BME280;5753;54.402;10.220;2024-03-23T04:53:51;100579.47;;;3.76;98.28
11395;BME280;5753;54.402;10.220;2024-03-23T04:56:20;100569.19;;;3.79;98.47
11395;BME280;5753;54.402;10.220;2024-03-23T04:58:47;100573.53;;;3.74;98.51
11395;BME280;5753;54.402;10.220;2024-03-23T05:01:14;100571.03;;;3.72;98.17
11395;BME280;5753;54.402;10.220;2024-03-23T05:03:41;100576.84;;;3.79;98.40
11395;BME280;5753;54.402;10.220;2024-03-23T05:06:08;100580.31;;;3.75;98.72
11395;BME280;5753;54.402;10.220;2024-03-23T05:08:34;100575.13;;;3.79;98.36
11395;BME280;5753;54.402;10.220;2024-03-23T05:11:02;100581.19;;;3.74;98.58
11395;BME280;5753;54.402;10.220;2024-03-23T05:13:31;100573.69;;;3.63;99.29
11395;BME280;5753;54.402;10.220;2024-03-23T05:16:00;100573.56;;;3.72;99.30
11395;BME280;5753;54.402;10.220;2024-03-23T05:18:30;100572.75;;;3.70;99.30
11395;BME280;5753;54.402;10.220;2024-03-23T05:21:01;100565.78;;;3.80;99.84
11395;BME280;5753;54.402;10.220;2024-03-23T05:23:29;100575.03;;;3.87;100.00
11395;BME280;5753;54.402;10.220;2024-03-23T05:25:57;100577.50;;;3.91;100.00
11395;BME280;5753;54.402;10.220;2024-03-23T05:28:24;100571.47;;;3.96;100.00
11395;BME280;5753;54.402;10.220;2024-03-23T05:30:55;100567.22;;;3.94;100.00
11395;BME280;5753;54.402;10.220;2024-03-23T05:33:25;100570.53;;;4.00;99.97
11395;BME280;5753;54.402;10.220;2024-03-23T05:36:03;100564.50;;;4.02;100.00
11395;BME280;5753;54.402;10.220;2024-03-23T05:38:30;100573.75;;;4.09;100.00
11395;BME280;5753;54.402;10.220;2024-03-23T05:41:01;100574.59;;;4.10;100.00
11395;BME280;5753;54.402;10.220;2024-03-23T05:43:28;100565.91;;;4.18;100.00
11395;BME280;5753;54.402;10.220;2024-03-23T05:45:58;100565.94;;;4.17;100.00
11395;BME280;5753;54.402;10.220;2024-03-23T05:48:28;100573.53;;;4.21;100.00
11395;BME280;5753;54.402;10.220;2024-03-23T05:50:59;100575.19;;;4.24;100.00
11395;BME280;5753;54.402;10.220;2024-03-23T05:53:27;100565.72;;;4.29;100.00
11395;BME280;5753;54.402;10.220;2024-03-23T05:56:03;100563.16;;;4.30;100.00
11395;BME280;5753;54.402;10.220;2024-03-23T05:58:37;100565.75;;;4.27;100.00
11395;BME280;5753;54.402;10.220;2024-03-23T06:01:04;100559.69;;;4.31;100.00
11395;BME280;5753;54.402;10.220;2024-03-23T06:03:31;100563.84;;;4.38;100.00
11395;BME280;5753;54.402;10.220;2024-03-23T06:05:58;100552.66;;;4.43;100.00
11395;BME280;5753;54.402;10.220;2024-03-23T06:08:26;100553.44;;;4.46;100.00
11395;BME280;5753;54.402;10.220;2024-03-23T06:10:53;100551.81;;;4.44;100.00
11395;BME280;5753;54.402;10.220;2024-03-23T06:13:21;100538.19;;;4.42;100.00
11395;BME280;5753;54.402;10.220;2024-03-23T06:15:55;100538.94;;;4.47;100.00
11395;BME280;5753;54.402;10.220;2024-03-23T06:18:22;100540.63;;;4.48;100.00
11395;BME280;5753;54.402;10.220;2024-03-23T06:20:51;100540.56;;;4.52;100.00
11395;BME280;5753;54.402;10.220;2024-03-23T06:23:18;100541.38;;;4.53;100.00
11395;BME280;5753;54.402;10.220;2024-03-23T06:25:46;100541.47;;;4.50;100.00
11395;BME280;5753;54.402;10.220;2024-03-23T06:28:14;100537.16;;;4.52;100.00
11395;BME280;5753;54.402;10.220;2024-03-23T06:30:41;100539.81;;;4.47;100.00
11395;BME280;5753;54.402;10.220;2024-03-23T06:33:08;100536.44;;;4.45;100.00
11395;BME280;5753;54.402;10.220;2024-03-23T06:35:37;100540.75;;;4.43;100.00
11395;BME280;5753;54.402;10.220;2024-03-23T06:38:04;100539.88;;;4.44;100.00
11395;BME280;5753;54.402;10.220;2024-03-23T06:40:32;100542.56;;;4.36;100.00
11395;BME280;5753;54.402;10.220;2024-03-23T06:42:58;100540.91;;;4.35;100.00
11395;BME280;5753;54.402;10.220;2024-03-23T06:45:26;100541.59;;;4.44;100.00
11395;BME280;5753;54.402;10.220;2024-03-23T06:47:53;100545.78;;;4.46;100.00
11395;BME280;5753;54.402;10.220;2024-03-23T06:50:25;100542.25;;;4.53;100.00
11395;BME280;5753;54.402;10.220;2024-03-23T06:52:52;100537.69;;;4.66;100.00
11395;BME280;5753;54.402;10.220;2024-03-23T06:55:18;100536.63;;;4.76;100.00
11395;BME280;5753;54.402;10.220;2024-03-23T06:57:47;100525.44;;;4.81;99.56
11395;BME280;5753;54.402;10.220;2024-03-23T07:00:14;100529.59;;;4.86;99.35
11395;BME280;5753;54.402;10.220;2024-03-23T07:02:44;100526.88;;;4.93;99.12
11395;BME280;5753;54.402;10.220;2024-03-23T07:05:11;100518.16;;;5.02;98.65
11395;BME280;5753;54.402;10.220;2024-03-23T07:07:39;100515.31;;;5.14;98.20
11395;BME280;5753;54.402;10.220;2024-03-23T07:10:06;100511.13;;;5.10;97.79
11395;BME280;5753;54.402;10.220;2024-03-23T07:12:34;100525.41;;;5.20;97.81
11395;BME280;5753;54.402;10.220;2024-03-23T07:15:02;100527.88;;;5.23;97.44
11395;BME280;5753;54.402;10.220;2024-03-23T07:17:30;100515.03;;;5.26;97.24
11395;BME280;5753;54.402;10.220;2024-03-23T07:19:57;100518.97;;;5.39;97.04
11395;BME280;5753;54.402;10.220;2024-03-23T07:22:25;100532.34;;;5.50;96.92
11395;BME280;5753;54.402;10.220;2024-03-23T07:24:52;100518.59;;;5.54;96.64
11395;BME280;5753;54.402;10.220;2024-03-23T07:27:20;100517.50;;;5.64;95.62
11395;BME280;5753;54.402;10.220;2024-03-23T07:29:46;100517.41;;;5.67;95.75
11395;BME280;5753;54.402;10.220;2024-03-23T07:32:15;100515.03;;;5.94;95.14
11395;BME280;5753;54.402;10.220;2024-03-23T07:34:42;100516.50;;;6.02;94.44
11395;BME280;5753;54.402;10.220;2024-03-23T07:37:13;100512.53;;;6.23;93.90
11395;BME280;5753;54.402;10.220;2024-03-23T07:39:42;100502.28;;;6.23;93.27
11395;BME280;5753;54.402;10.220;2024-03-23T07:42:11;100501.72;;;6.12;92.72
11395;BME280;5753;54.402;10.220;2024-03-23T07:44:41;100498.56;;;6.02;93.81
11395;BME280;5753;54.402;10.220;2024-03-23T07:47:08;100495.91;;;6.05;93.07
11395;BME280;5753;54.402;10.220;2024-03-23T07:49:36;100503.31;;;6.16;92.92
11395;BME280;5753;54.402;10.220;2024-03-23T07:52:05;100496.91;;;6.31;93.12
11395;BME280;5753;54.402;10.220;2024-03-23T07:54:31;100488.78;;;6.46;92.51
11395;BME280;5753;54.402;10.220;2024-03-23T07:56:59;100491.25;;;6.49;91.38
11395;BME280;5753;54.402;10.220;2024-03-23T07:59:25;100491.81;;;6.59;91.66
11395;BME280;5753;54.402;10.220;2024-03-23T08:01:53;100478.69;;;6.69;90.06
11395;BME280;5753;54.402;10.220;2024-03-23T08:04:22;100472.50;;;6.76;90.28
11395;BME280;5753;54.402;10.220;2024-03-23T08:06:50;100476.50;;;6.85;89.64
11395;BME280;5753;54.402;10.220;2024-03-23T08:09:16;100466.09;;;6.89;88.91
11395;BME280;5753;54.402;10.220;2024-03-23T08:11:46;100461.00;;;6.88;88.64
11395;BME280;5753;54.402;10.220;2024-03-23T08:14:13;100466.75;;;6.96;88.73
11395;BME280;5753;54.402;10.220;2024-03-23T08:16:41;100452.91;;;7.00;88.08
11395;BME280;5753;54.402;10.220;2024-03-23T08:19:09;100460.44;;;7.06;87.93
11395;BME280;5753;54.402;10.220;2024-03-23T08:21:40;100447.34;;;7.14;87.45
11395;BME280;5753;54.402;10.220;2024-03-23T08:24:08;100438.50;;;7.22;86.85
11395;BME280;5753;54.402;10.220;2024-03-23T08:26:37;100434.69;;;7.34;85.38
11395;BME280;5753;54.402;10.220;2024-03-23T08:29:03;100444.84;;;7.62;84.99
11395;BME280;5753;54.402;10.220;2024-03-23T08:31:30;100431.03;;;7.89;83.79
11395;BME280;5753;54.402;10.220;2024-03-23T08:33:58;100429.59;;;8.05;82.06
11395;BME280;5753;54.402;10.220;2024-03-23T08:36:24;100417.91;;;8.20;81.64
11395;BME280;5753;54.402;10.220;2024-03-23T08:38:51;100417.94;;;8.18;80.17
11395;BME280;5753;54.402;10.220;2024-03-23T08:41:21;100422.31;;;8.40;79.47
11395;BME280;5753;54.402;10.220;2024-03-23T08:43:47;100427.13;;;8.70;77.63
11395;BME280;5753;54.402;10.220;2024-03-23T08:46:16;100472.22;;;7.38;75.41
11395;BME280;5753;54.402;10.220;2024-03-23T08:48:44;100473.41;;;6.17;77.01
11395;BME280;5753;54.402;10.220;2024-03-23T08:51:12;100471.69;;;5.85;79.51
11395;BME280;5753;54.402;10.220;2024-03-23T08:53:41;100482.72;;;5.56;81.64
11395;BME280;5753;54.402;10.220;2024-03-23T08:56:09;100465.19;;;5.41;81.66
11395;BME280;5753;54.402;10.220;2024-03-23T08:58:37;100469.00;;;5.23;78.51
11395;BME280;5753;54.402;10.220;2024-03-23T09:01:08;100446.66;;;5.31;80.69
11395;BME280;5753;54.402;10.220;2024-03-23T09:03:37;100438.75;;;5.39;81.67
11395;BME280;5753;54.402;10.220;2024-03-23T09:06:24;100441.19;;;5.43;83.22
11395;BME280;5753;54.402;10.220;2024-03-23T09:08:51;100438.81;;;5.37;82.91
11395;BME280;5753;54.402;10.220;2024-03-23T09:11:17;100433.13;;;5.26;84.24
11395;BME280;5753;54.402;10.220;2024-03-23T09:13:44;100442.72;;;5.18;86.16
11395;BME280;5753;54.402;10.220;2024-03-23T09:16:10;100447.50;;;4.96;87.47
11395;BME280;5753;54.402;10.220;2024-03-23T09:18:38;100461.66;;;4.74;89.05
11395;BME280;5753;54.402;10.220;2024-03-23T09:21:12;100461.84;;;4.65;89.90
11395;BME280;5753;54.402;10.220;2024-03-23T09:23:46;100492.16;;;4.45;90.40
11395;BME280;5753;54.402;10.220;2024-03-23T09:26:14;100482.84;;;3.98;89.15
11395;BME280;5753;54.402;10.220;2024-03-23T09:28:42;100476.94;;;3.96;87.82
11395;BME280;5753;54.402;10.220;2024-03-23T09:31:09;100468.81;;;3.75;88.73
11395;BME280;5753;54.402;10.220;2024-03-23T09:33:41;100460.50;;;3.64;90.10
11395;BME280;5753;54.402;10.220;2024-03-23T09:36:09;100446.03;;;3.65;90.88
11395;BME280;5753;54.402;10.220;2024-03-23T09:38:35;100448.50;;;3.69;91.06
11395;BME280;5753;54.402;10.220;2024-03-23T09:41:09;100458.59;;;3.75;90.94
11395;BME280;5753;54.402;10.220;2024-03-23T09:43:39;100452.53;;;3.82;92.29
11395;BME280;5753;54.402;10.220;2024-03-23T09:46:05;100441.22;;;3.94;92.43
11395;BME280;5753;54.402;10.220;2024-03-23T09:48:32;100435.97;;;4.02;92.38
11395;BME280;5753;54.402;10.220;2024-03-23T09:50:59;100426.31;;;4.14;91.40
11395;BME280;5753;54.402;10.220;2024-03-23T09:53:26;100423.50;;;4.26;90.98
11395;BME280;5753;54.402;10.220;2024-03-23T09:55:54;100418.94;;;4.41;90.14
11395;BME280;5753;54.402;10.220;2024-03-23T09:58:24;100416.97;;;4.52;89.57
11395;BME280;5753;54.402;10.220;2024-03-23T10:00:51;100418.66;;;4.53;89.31
11395;BME280;5753;54.402;10.220;2024-03-23T10:03:18;100407.63;;;4.51;91.31
11395;BME280;5753;54.402;10.220;2024-03-23T10:05:44;100408.56;;;4.47;90.09
11395;BME280;5753;54.402;10.220;2024-03-23T10:08:37;100411.44;;;4.70;90.62
11395;BME280;5753;54.402;10.220;2024-03-23T10:11:16;100400.38;;;5.05;91.46
11395;BME280;5753;54.402;10.220;2024-03-23T10:13:44;100393.22;;;5.51;91.71
11395;BME280;5753;54.402;10.220;2024-03-23T10:16:20;100395.97;;;6.05;90.34
11395;BME280;5753;54.402;10.220;2024-03-23T10:18:47;100386.53;;;6.63;89.60
11395;BME280;5753;54.402;10.220;2024-03-23T10:21:16;100389.25;;;6.85;85.68
11395;BME280;5753;54.402;10.220;2024-03-23T10:23:44;100383.03;;;6.92;84.17
11395;BME280;5753;54.402;10.220;2024-03-23T10:26:21;100386.72;;;7.10;85.13
11395;BME280;5753;54.402;10.220;2024-03-23T10:28:59;100391.84;;;6.83;84.18
11395;BME280;5753;54.402;10.220;2024-03-23T10:31:37;100391.09;;;6.53;84.35
11395;BME280;5753;54.402;10.220;2024-03-23T10:34:08;100384.91;;;6.33;84.56
11395;BME280;5753;54.402;10.220;2024-03-23T10:36:39;100390.41;;;6.48;85.32
11395;BME280;5753;54.402;10.220;2024-03-23T10:39:08;100382.59;;;6.79;83.96
11395;BME280;5753;54.402;10.220;2024-03-23T10:41:49;100376.25;;;6.89;81.48
11395;BME280;5753;54.402;10.220;2024-03-23T10:44:17;100379.72;;;6.88;81.54
11395;BME280;5753;54.402;10.220;2024-03-23T10:46:47;100380.19;;;6.73;80.56
11395;BME280;5753;54.402;10.220;2024-03-23T10:49:13;100391.59;;;6.65;78.97
11395;BME280;5753;54.402;10.220;2024-03-23T10:51:40;100373.97;;;6.82;79.10
11395;BME280;5753;54.402;10.220;2024-03-23T10:54:09;100380.31;;;7.21;78.44
11395;BME280;5753;54.402;10.220;2024-03-23T10:56:40;100369.47;;;7.63;77.53
11395;BME280;5753;54.402;10.220;2024-03-23T10:59:07;100351.69;;;7.80;75.32
11395;BME280;5753;54.402;10.220;2024-03-23T11:01:57;100348.38;;;8.00;75.65
11395;BME280;5753;54.402;10.220;2024-03-23T11:04:36;100348.75;;;8.36;76.12
11395;BME280;5753;54.402;10.220;2024-03-23T11:10:28;100348.41;;;9.27;70.47
11395;BME280;5753;54.402;10.220;2024-03-23T11:12:57;100345.13;;;9.24;68.77
11395;BME280;5753;54.402;10.220;2024-03-23T11:15:24;100336.09;;;9.13;69.21
11395;BME280;5753;54.402;10.220;2024-03-23T11:18:07;100340.16;;;9.19;68.52
11395;BME280;5753;54.402;10.220;2024-03-23T11:20:36;100330.16;;;9.32;66.67
11395;BME280;5753;54.402;10.220;2024-03-23T11:23:05;100329.66;;;9.44;68.87
11395;BME280;5753;54.402;10.220;2024-03-23T11:25:33;100324.09;;;9.72;65.95
11395;BME280;5753;54.402;10.220;2024-03-23T11:28:12;100328.25;;;9.93;62.68
11395;BME280;5753;54.402;10.220;2024-03-23T11:30:40;100317.69;;;9.80;61.41
11395;BME280;5753;54.402;10.220;2024-03-23T11:33:07;100327.63;;;9.50;60.75
11395;BME280;5753;54.402;10.220;2024-03-23T11:35:36;100330.09;;;9.33;61.06
11395;BME280;5753;54.402;10.220;2024-03-23T11:38:17;100346.00;;;8.82;62.20
11395;BME280;5753;54.402;10.220;2024-03-23T11:40:49;100362.50;;;8.56;63.90
11395;BME280;5753;54.402;10.220;2024-03-23T11:43:19;100367.34;;;8.19;66.02
11395;BME280;5753;54.402;10.220;2024-03-23T11:45:51;100382.81;;;7.72;66.44
11395;BME280;5753;54.402;10.220;2024-03-23T11:48:20;100371.47;;;7.78;67.56
11395;BME280;5753;54.402;10.220;2024-03-23T11:50:50;100366.41;;;8.21;64.82
11395;BME280;5753;54.402;10.220;2024-03-23T11:53:20;100371.06;;;7.65;66.49
11395;BME280;5753;54.402;10.220;2024-03-23T11:55:57;100370.69;;;7.28;70.41
11395;BME280;5753;54.402;10.220;2024-03-23T11:58:26;100356.38;;;6.96;69.64
11395;BME280;5753;54.402;10.220;2024-03-23T12:00:59;100355.75;;;7.14;68.63
11395;BME280;5753;54.402;10.220;2024-03-23T12:03:28;100350.56;;;7.16;67.20
11395;BME280;5753;54.402;10.220;2024-03-23T12:06:00;100351.47;;;7.15;67.15
11395;BME280;5753;54.402;10.220;2024-03-23T12:11:17;100328.47;;;8.05;67.24
11395;BME280;5753;54.402;10.220;2024-03-23T12:13:46;100317.31;;;8.27;67.54
11395;BME280;5753;54.402;10.220;2024-03-23T12:16:14;100307.91;;;8.70;66.60
11395;BME280;5753;54.402;10.220;2024-03-23T12:18:47;100321.34;;;8.77;64.39
11395;BME280;5753;54.402;10.220;2024-03-23T12:21:15;100309.72;;;8.88;63.23
11395;BME280;5753;54.402;10.220;2024-03-23T12:23:48;100309.50;;;9.13;63.09
11395;BME280;5753;54.402;10.220;2024-03-23T12:26:25;100308.81;;;9.09;61.37
11395;BME280;5753;54.402;10.220;2024-03-23T12:28:54;100307.06;;;9.49;61.86
11395;BME280;5753;54.402;10.220;2024-03-23T12:31:20;100314.78;;;9.49;61.50
11395;BME280;5753;54.402;10.220;2024-03-23T12:33:48;100319.41;;;8.82;63.94
11395;BME280;5753;54.402;10.220;2024-03-23T12:36:16;100319.88;;;8.06;70.32
11395;BME280;5753;54.402;10.220;2024-03-23T12:38:42;100319.13;;;7.34;73.23
11395;BME280;5753;54.402;10.220;2024-03-23T12:41:16;100329.03;;;6.95;73.20
11395;BME280;5753;54.402;10.220;2024-03-23T12:43:42;100338.81;;;6.84;72.33
11395;BME280;5753;54.402;10.220;2024-03-23T12:46:08;100325.94;;;6.85;71.87
11395;BME280;5753;54.402;10.220;2024-03-23T12:48:40;100314.13;;;7.99;71.02
11395;BME280;5753;54.402;10.220;2024-03-23T12:51:10;100309.50;;;9.13;67.02
11395;BME280;5753;54.402;10.220;2024-03-23T12:53:40;100295.41;;;10.34;62.79
11395;BME280;5753;54.402;10.220;2024-03-23T12:56:09;100299.47;;;10.74;59.41
11395;BME280;5753;54.402;10.220;2024-03-23T12:58:37;100293.56;;;11.55;56.28
11395;BME280;5753;54.402;10.220;2024-03-23T13:01:04;100294.34;;;11.07;56.51
11395;BME280;5753;54.402;10.220;2024-03-23T13:03:32;100297.66;;;10.04;59.02
11395;BME280;5753;54.402;10.220;2024-03-23T13:06:00;100309.56;;;9.50;58.82
11395;BME280;5753;54.402;10.220;2024-03-23T13:08:27;100307.09;;;9.10;60.14
11395;BME280;5753;54.402;10.220;2024-03-23T13:10:53;100298.00;;;10.34;55.86
11395;BME280;5753;54.402;10.220;2024-03-23T13:13:21;100284.66;;;11.92;51.43
11395;BME280;5753;54.402;10.220;2024-03-23T13:15:50;100282.31;;;13.65;46.23
11395;BME280;5753;54.402;10.220;2024-03-23T13:18:17;100279.19;;;14.54;43.16
11395;BME280;5753;54.402;10.220;2024-03-23T13:20:45;100273.69;;;13.78;44.79
11395;BME280;5753;54.402;10.220;2024-03-23T13:23:11;100284.19;;;13.34;46.34
11395;BME280;5753;54.402;10.220;2024-03-23T13:25:37;100287.69;;;12.45;47.12
11395;BME280;5753;54.402;10.220;2024-03-23T13:28:05;100277.50;;;13.59;46.42
11395;BME280;5753;54.402;10.220;2024-03-23T13:30:33;100288.84;;;12.99;47.21
11395;BME280;5753;54.402;10.220;2024-03-23T13:32:59;100286.47;;;12.21;48.99
11395;BME280;5753;54.402;10.220;2024-03-23T13:35:27;100294.09;;;12.24;50.29
11395;BME280;5753;54.402;10.220;2024-03-23T13:37:54;100312.00;;;10.99;53.37
11395;BME280;5753;54.402;10.220;2024-03-23T13:40:21;100341.50;;;9.07;62.58
11395;BME280;5753;54.402;10.220;2024-03-23T13:42:48;100376.41;;;6.85;69.20
11395;BME280;5753;54.402;10.220;2024-03-23T13:45:17;100359.81;;;5.85;70.32
11395;BME280;5753;54.402;10.220;2024-03-23T13:47:44;100354.38;;;5.96;72.97
11395;BME280;5753;54.402;10.220;2024-03-23T13:50:12;100354.69;;;5.85;71.91
11395;BME280;5753;54.402;10.220;2024-03-23T13:52:46;100356.59;;;5.77;72.93
11395;BME280;5753;54.402;10.220;2024-03-23T13:55:13;100360.28;;;5.68;74.83
11395;BME280;5753;54.402;10.220;2024-03-23T13:57:41;100357.81;;;5.65;74.85
11395;BME280;5753;54.402;10.220;2024-03-23T14:00:08;100355.53;;;5.55;77.26
11395;BME280;5753;54.402;10.220;2024-03-23T14:02:35;100341.34;;;5.43;76.19